Time;durP1;ratioP1;P1;durP2;ratioP2;P2;SDS_P1;SDS_P2;PMS_P1;PMS_P2;Temp;Humidity;BMP_temperature;BMP_pressure;BME280_temperature;BME280_humidity;BME280_pressure;Samples;Min_cycle;Max_cycle;Signal;HPM_P1;HPM_P2
2021/08/26 00:07:46;;;;;;;11.88;8.02;;;16.70;89.50;;;;;;5019810;28;20496;-72
2021/08/26 00:10:13;;;;;;;12.43;7.38;;;16.70;89.50;;;;;;5032008;28;20045;-72
2021/08/26 00:12:39;;;;;;;15.40;7.68;;;16.70;89.30;;;;;;5033639;28;20104;-72
2021/08/26 00:15:08;;;;;;;12.68;8.18;;;16.70;89.60;;;;;;5036632;28;20079;-72
2021/08/26 00:17:34;;;;;;;11.00;7.85;;;16.60;89.70;;;;;;5033118;28;20033;-73
2021/08/26 00:20:01;;;;;;;11.50;7.15;;;16.70;89.80;;;;;;5033533;28;20037;-73
2021/08/26 00:22:27;;;;;;;12.27;8.38;;;16.70;89.80;;;;;;5043378;28;20469;-72
2021/08/26 00:24:52;;;;;;;13.05;8.40;;;16.70;89.90;;;;;;5033889;28;20125;-82
2021/08/26 00:27:18;;;;;;;14.52;8.20;;;16.60;90.00;;;;;;5020585;28;20030;-79
2021/08/26 00:29:43;;;;;;;10.80;7.65;;;16.60;90.10;;;;;;5034558;28;20060;-72
2021/08/26 00:32:09;;;;;;;14.38;8.68;;;16.60;90.10;;;;;;5032847;28;20037;-72
2021/08/26 00:34:35;;;;;;;14.63;8.98;;;16.60;90.10;;;;;;5031955;28;20036;-72
2021/08/26 00:37:00;;;;;;;16.23;8.82;;;16.60;90.10;;;;;;5035302;28;20076;-72
2021/08/26 00:39:26;;;;;;;12.82;8.70;;;16.60;90.30;;;;;;5032523;28;20080;-79
2021/08/26 00:41:52;;;;;;;14.30;8.45;;;16.60;90.20;;;;;;5033094;28;20041;-72
2021/08/26 00:44:18;;;;;;;16.77;8.48;;;16.60;90.20;;;;;;5032275;28;20040;-72
2021/08/26 00:46:46;;;;;;;15.27;8.88;;;16.60;90.20;;;;;;5033265;28;20033;-72
2021/08/26 00:49:13;;;;;;;13.70;8.45;;;16.50;90.40;;;;;;5033135;28;20045;-72
2021/08/26 00:51:39;;;;;;;19.80;9.20;;;16.60;90.40;;;;;;5034711;28;20082;-73
2021/08/26 00:54:06;;;;;;;12.15;8.40;;;16.50;90.40;;;;;;5036767;28;20041;-72
2021/08/26 00:56:32;;;;;;;14.40;7.90;;;16.60;90.40;;;;;;5019754;28;20033;-73
2021/08/26 00:58:59;;;;;;;13.63;8.25;;;16.60;90.30;;;;;;5040631;28;20033;-72
2021/08/26 01:01:45;;;;;;;14.32;8.23;;;16.60;90.10;;;;;;5033110;28;20037;-73
2021/08/26 01:04:35;;;;;;;14.32;8.68;;;16.60;90.30;;;;;;5024405;28;20034;-75
2021/08/26 01:07:16;;;;;;;13.25;8.23;;;16.60;90.30;;;;;;5016665;28;20057;-73
2021/08/26 01:09:46;;;;;;;14.15;7.97;;;16.60;90.20;;;;;;5025383;28;20053;-72
2021/08/26 01:12:17;;;;;;;14.90;8.32;;;16.60;90.20;;;;;;5031059;28;20388;-72
2021/08/26 01:14:44;;;;;;;12.52;8.32;;;16.60;90.20;;;;;;5026465;28;20026;-72
2021/08/26 01:17:17;;;;;;;13.70;8.30;;;16.60;90.30;;;;;;5028990;28;20034;-72
2021/08/26 01:19:42;;;;;;;19.45;8.95;;;16.60;90.30;;;;;;5026460;28;20026;-75
2021/08/26 01:22:08;;;;;;;13.32;7.93;;;16.60;90.30;;;;;;5028408;28;20098;-73
2021/08/26 01:24:34;;;;;;;13.13;8.13;;;16.60;90.10;;;;;;5034065;28;20041;-74
2021/08/26 01:27:01;;;;;;;15.82;8.52;;;16.60;90.20;;;;;;5043988;28;20057;-73
2021/08/26 01:29:27;;;;;;;16.13;8.57;;;16.60;90.00;;;;;;5031512;28;20025;-81
2021/08/26 01:31:53;;;;;;;15.18;8.57;;;16.60;90.00;;;;;;5027671;28;20034;-72
2021/08/26 01:34:20;;;;;;;16.55;8.50;;;16.60;89.90;;;;;;5023248;28;20079;-73
2021/08/26 01:36:47;;;;;;;14.13;8.55;;;16.60;90.00;;;;;;5033543;28;20033;-74
2021/08/26 01:39:14;;;;;;;15.18;8.38;;;16.60;90.00;;;;;;5030018;28;20037;-72
2021/08/26 01:41:46;;;;;;;15.85;8.63;;;16.60;90.10;;;;;;5030437;28;20036;-73
2021/08/26 01:44:26;;;;;;;16.08;8.27;;;16.60;90.10;;;;;;5030544;28;20172;-74
2021/08/26 01:46:56;;;;;;;14.60;8.38;;;16.70;90.10;;;;;;5032001;28;20037;-75
2021/08/26 01:49:25;;;;;;;15.57;8.48;;;16.70;90.10;;;;;;5031604;28;20037;-73
2021/08/26 01:51:51;;;;;;;13.25;7.68;;;16.70;90.10;;;;;;5035135;28;20041;-74
2021/08/26 01:54:17;;;;;;;12.13;8.25;;;16.70;90.10;;;;;;5035756;28;20029;-72
2021/08/26 01:56:42;;;;;;;17.92;8.73;;;16.70;90.30;;;;;;5044281;28;20032;-74
2021/08/26 01:59:08;;;;;;;15.80;9.05;;;16.60;90.30;;;;;;5043581;28;20048;-73
2021/08/26 02:01:34;;;;;;;15.27;8.15;;;16.60;90.50;;;;;;5031009;28;20091;-74
2021/08/26 02:03:59;;;;;;;12.40;8.05;;;16.60;90.60;;;;;;5049310;28;20037;-72
2021/08/26 02:06:25;;;;;;;11.32;7.55;;;16.60;90.70;;;;;;5037788;28;20033;-72
2021/08/26 02:08:50;;;;;;;11.98;7.63;;;16.60;90.70;;;;;;5036154;28;20041;-74
2021/08/26 02:11:16;;;;;;;12.32;7.88;;;16.60;90.90;;;;;;5046107;28;20400;-73
2021/08/26 02:13:42;;;;;;;13.68;8.23;;;16.60;91.00;;;;;;5031755;28;20072;-71
2021/08/26 02:16:08;;;;;;;10.68;6.97;;;16.60;90.90;;;;;;5028138;28;20117;-74
2021/08/26 02:18:33;;;;;;;12.60;7.38;;;16.60;91.00;;;;;;5031013;28;20121;-72
2021/08/26 02:20:59;;;;;;;11.25;7.03;;;16.60;91.10;;;;;;5024592;28;20088;-72
2021/08/26 02:23:25;;;;;;;14.60;7.60;;;16.60;91.10;;;;;;5028920;28;20445;-72
2021/08/26 02:25:50;;;;;;;13.48;8.02;;;16.60;91.20;;;;;;5030338;28;20451;-72
2021/08/26 02:28:16;;;;;;;13.52;7.15;;;16.60;91.20;;;;;;5017654;28;20440;-71
2021/08/26 02:30:43;;;;;;;11.75;6.80;;;16.60;91.20;;;;;;5027380;28;20029;-71
2021/08/26 02:33:09;;;;;;;10.80;7.35;;;16.60;91.20;;;;;;5028064;28;20483;-72
2021/08/26 02:35:34;;;;;;;11.80;6.95;;;16.60;91.20;;;;;;5030444;28;20128;-72
2021/08/26 02:38:00;;;;;;;12.50;7.55;;;16.60;91.20;;;;;;5022214;28;20117;-74
2021/08/26 02:40:25;;;;;;;11.55;6.93;;;16.60;91.30;;;;;;5010479;28;20038;-75
2021/08/26 02:42:51;;;;;;;13.68;7.65;;;16.70;91.30;;;;;;5011033;28;20480;-71
2021/08/26 02:45:17;;;;;;;13.23;7.13;;;16.70;91.20;;;;;;5013196;28;20126;-72
2021/08/26 02:47:42;;;;;;;14.15;7.70;;;16.70;91.30;;;;;;5027973;28;20091;-73
2021/08/26 02:50:08;;;;;;;13.27;8.35;;;16.70;91.30;;;;;;5028470;28;20045;-71
2021/08/26 02:52:34;;;;;;;13.75;8.40;;;16.70;91.20;;;;;;5032047;28;20067;-71
2021/08/26 02:55:00;;;;;;;16.17;8.65;;;16.70;91.30;;;;;;5030194;28;20393;-81
2021/08/26 02:57:25;;;;;;;15.98;8.05;;;16.70;91.20;;;;;;5029116;28;20021;-72
2021/08/26 02:59:51;;;;;;;13.02;7.80;;;16.70;91.40;;;;;;5028291;28;20041;-72
2021/08/26 03:02:17;;;;;;;14.20;7.43;;;16.70;91.40;;;;;;5029459;28;20033;-72
2021/08/26 03:04:42;;;;;;;14.07;7.72;;;16.70;91.40;;;;;;5026889;28;20041;-71
2021/08/26 03:07:08;;;;;;;12.27;6.97;;;16.70;91.40;;;;;;5012446;28;20038;-71
2021/08/26 03:09:34;;;;;;;13.57;6.90;;;16.70;91.40;;;;;;5031087;28;20064;-73
2021/08/26 03:11:59;;;;;;;10.88;6.90;;;16.70;91.50;;;;;;5022259;28;20157;-73
2021/08/26 03:14:25;;;;;;;9.90;5.65;;;16.70;91.70;;;;;;5009680;28;20037;-72
2021/08/26 03:16:51;;;;;;;11.57;5.90;;;16.70;91.60;;;;;;5025538;28;20477;-73
2021/08/26 03:19:17;;;;;;;9.52;5.18;;;16.70;91.60;;;;;;5019566;28;20045;-71
2021/08/26 03:21:42;;;;;;;11.15;5.85;;;16.70;91.70;;;;;;5021486;28;20040;-72
2021/08/26 03:24:08;;;;;;;11.18;5.47;;;16.70;91.70;;;;;;5030510;28;20045;-72
2021/08/26 03:26:34;;;;;;;10.32;5.70;;;16.60;91.80;;;;;;5017008;28;20109;-77
2021/08/26 03:28:59;;;;;;;10.23;5.20;;;16.70;91.90;;;;;;5011130;28;20056;-72
2021/08/26 03:31:25;;;;;;;11.88;5.22;;;16.60;91.90;;;;;;5009774;28;20389;-72
2021/08/26 03:33:51;;;;;;;10.43;5.10;;;16.70;91.90;;;;;;5014853;28;20040;-72
2021/08/26 03:36:17;;;;;;;9.82;5.05;;;16.70;92.00;;;;;;5019356;28;20114;-71
2021/08/26 03:38:43;;;;;;;10.10;4.65;;;16.70;92.00;;;;;;5012894;28;20033;-73
2021/08/26 03:41:08;;;;;;;7.70;3.85;;;16.70;92.00;;;;;;5021209;28;20038;-73
2021/08/26 03:43:34;;;;;;;10.90;4.57;;;16.60;92.00;;;;;;5011669;28;20495;-75
2021/08/26 03:46:00;;;;;;;8.85;4.10;;;16.60;92.00;;;;;;5017589;28;20030;-72
2021/08/26 03:48:25;;;;;;;9.45;3.88;;;16.70;92.20;;;;;;5027913;28;20117;-74
2021/08/26 03:50:51;;;;;;;6.93;3.40;;;16.60;92.20;;;;;;5031452;28;20060;-76
2021/08/26 03:53:16;;;;;;;6.95;2.97;;;16.50;92.10;;;;;;5037987;28;20030;-72
2021/08/26 03:55:42;;;;;;;8.07;3.45;;;16.40;92.00;;;;;;5016847;28;20029;-71
2021/08/26 03:58:08;;;;;;;7.05;3.42;;;16.30;91.70;;;;;;5012045;28;20030;-72
2021/08/26 04:00:33;;;;;;;10.50;3.60;;;16.40;91.60;;;;;;5015481;28;20032;-72
2021/08/26 04:02:59;;;;;;;9.52;3.30;;;16.30;91.40;;;;;;5014490;28;20073;-72
2021/08/26 04:05:25;;;;;;;7.57;3.50;;;16.30;91.40;;;;;;5011372;28;20393;-71
2021/08/26 04:07:50;;;;;;;9.90;3.50;;;16.30;91.40;;;;;;5017758;28;20037;-73
2021/08/26 04:10:16;;;;;;;11.50;3.58;;;16.30;91.40;;;;;;5009059;28;20030;-72
2021/08/26 04:12:42;;;;;;;11.70;3.90;;;16.40;91.30;;;;;;5012942;28;20113;-72
2021/08/26 04:15:08;;;;;;;11.65;4.40;;;16.30;91.20;;;;;;5011552;28;20113;-72
2021/08/26 04:17:34;;;;;;;12.40;4.03;;;16.30;91.00;;;;;;5018763;28;20089;-80
2021/08/26 04:19:59;;;;;;;9.38;3.60;;;16.30;91.00;;;;;;5011600;28;20417;-74
2021/08/26 04:22:25;;;;;;;12.30;4.05;;;16.20;90.70;;;;;;5017644;28;20029;-73
2021/08/26 04:24:51;;;;;;;10.88;4.13;;;16.30;90.60;;;;;;5025392;28;20408;-72
2021/08/26 04:27:16;;;;;;;14.77;4.88;;;16.20;90.40;;;;;;5027465;28;20177;-72
2021/08/26 04:29:42;;;;;;;11.52;4.20;;;16.20;90.10;;;;;;5016600;28;20390;-76
2021/08/26 04:32:08;;;;;;;13.23;4.70;;;16.10;89.50;;;;;;5022588;28;20109;-71
2021/08/26 04:34:33;;;;;;;13.20;4.15;;;16.20;89.30;;;;;;5009381;28;20129;-72
2021/08/26 04:36:59;;;;;;;13.48;3.97;;;16.20;89.10;;;;;;5016153;28;20037;-71
2021/08/26 04:39:25;;;;;;;12.77;4.00;;;16.20;88.70;;;;;;5009943;28;20033;-73
2021/08/26 04:41:50;;;;;;;11.50;4.00;;;16.10;88.60;;;;;;5010624;28;20042;-74
2021/08/26 04:44:16;;;;;;;10.50;4.32;;;16.10;88.40;;;;;;5010718;28;20074;-73
2021/08/26 04:46:42;;;;;;;10.90;3.85;;;16.10;88.30;;;;;;5010984;28;20075;-72
2021/08/26 04:49:08;;;;;;;16.25;4.53;;;16.20;87.90;;;;;;5009873;28;20120;-72
2021/08/26 04:51:33;;;;;;;15.00;4.40;;;16.10;87.90;;;;;;5017543;28;20034;-72
2021/08/26 04:53:59;;;;;;;12.93;3.97;;;16.10;87.60;;;;;;5024835;28;20082;-72
2021/08/26 04:56:25;;;;;;;10.80;4.07;;;16.00;87.60;;;;;;5012927;28;20034;-72
2021/08/26 04:58:50;;;;;;;12.82;4.80;;;15.90;87.70;;;;;;5025145;28;20045;-72
2021/08/26 05:01:16;;;;;;;13.35;4.25;;;15.90;87.50;;;;;;5020071;28;20022;-72
2021/08/26 05:03:42;;;;;;;14.18;5.22;;;15.90;87.40;;;;;;5012621;28;20026;-72
2021/08/26 05:06:07;;;;;;;11.38;4.55;;;15.90;87.20;;;;;;5013981;28;20034;-76
2021/08/26 05:08:33;;;;;;;12.95;4.60;;;15.90;86.90;;;;;;5019278;28;20034;-73
2021/08/26 05:10:59;;;;;;;17.00;5.50;;;15.90;87.00;;;;;;5014943;28;20042;-72
2021/08/26 05:13:25;;;;;;;15.30;5.55;;;15.90;86.90;;;;;;5012725;28;20034;-72
2021/08/26 05:15:50;;;;;;;15.57;5.85;;;15.90;86.80;;;;;;5025164;28;20454;-71
2021/08/26 05:18:16;;;;;;;14.10;5.53;;;15.90;86.70;;;;;;5017440;28;20035;-72
2021/08/26 05:20:42;;;;;;;19.17;5.40;;;15.90;85.80;;;;;;5018072;28;20033;-72
2021/08/26 05:23:08;;;;;;;16.60;5.78;;;16.00;85.50;;;;;;5030693;28;20048;-79
2021/08/26 05:25:34;;;;;;;22.02;6.03;;;16.00;85.50;;;;;;5023381;28;20033;-73
2021/08/26 05:28:00;;;;;;;18.20;5.70;;;16.00;85.30;;;;;;5013252;28;20497;-72
2021/08/26 05:30:26;;;;;;;15.90;5.95;;;16.00;85.40;;;;;;5016053;28;20056;-71
2021/08/26 05:32:51;;;;;;;17.48;5.15;;;16.00;85.40;;;;;;5020575;28;20034;-72
2021/08/26 05:35:17;;;;;;;16.15;5.85;;;16.00;85.50;;;;;;5012199;28;20109;-71
2021/08/26 05:37:43;;;;;;;15.00;5.25;;;16.00;85.40;;;;;;5023138;28;20115;-71
2021/08/26 05:40:09;;;;;;;17.05;5.95;;;16.00;85.40;;;;;;5012390;28;20509;-74
2021/08/26 05:42:35;;;;;;;18.92;5.82;;;16.10;85.60;;;;;;5016452;28;20120;-70
2021/08/26 05:45:00;;;;;;;15.93;5.30;;;16.00;85.30;;;;;;5021077;28;20121;-70
2021/08/26 05:47:26;;;;;;;15.25;5.55;;;16.10;85.40;;;;;;5005666;28;20635;-71
2021/08/26 05:49:52;;;;;;;21.00;6.57;;;16.10;85.10;;;;;;5011513;28;20057;-69
2021/08/26 05:52:17;;;;;;;18.60;6.50;;;16.10;84.60;;;;;;5030374;28;20037;-69
2021/08/26 05:54:43;;;;;;;18.60;5.60;;;16.10;83.90;;;;;;5020195;28;20092;-70
2021/08/26 05:57:09;;;;;;;13.85;6.50;;;16.10;82.90;;;;;;5011254;28;20030;-70
2021/08/26 05:59:35;;;;;;;16.15;5.95;;;16.10;82.80;;;;;;5012677;28;20036;-71
2021/08/26 06:02:01;;;;;;;16.42;5.68;;;16.20;80.60;;;;;;5018323;28;20478;-70
2021/08/26 06:04:27;;;;;;;17.42;5.88;;;16.20;79.40;;;;;;5012916;28;20041;-70
2021/08/26 06:06:53;;;;;;;19.40;6.18;;;16.30;79.40;;;;;;5012982;28;20121;-70
2021/08/26 06:09:18;;;;;;;19.33;6.00;;;16.30;79.40;;;;;;5017128;28;20167;-70
2021/08/26 06:11:45;;;;;;;16.67;5.30;;;16.40;79.60;;;;;;5013331;28;20034;-72
2021/08/26 06:14:11;;;;;;;14.90;4.93;;;16.40;79.30;;;;;;5010377;28;20045;-75
2021/08/26 06:16:37;;;;;;;16.48;5.63;;;16.40;78.60;;;;;;5022401;28;20468;-72
2021/08/26 06:19:03;;;;;;;15.60;5.18;;;16.40;78.20;;;;;;5011672;28;20119;-70
2021/08/26 06:21:29;;;;;;;16.73;5.13;;;16.50;77.70;;;;;;5013548;28;20026;-70
2021/08/26 06:23:54;;;;;;;14.80;4.80;;;16.50;77.60;;;;;;5030132;28;20499;-70
2021/08/26 06:26:20;;;;;;;15.23;5.07;;;16.50;77.20;;;;;;5026329;28;20025;-70
2021/08/26 06:28:46;;;;;;;17.42;5.57;;;16.50;77.50;;;;;;5011201;28;20446;-71
2021/08/26 06:31:13;;;;;;;18.27;5.60;;;16.50;77.60;;;;;;5027918;28;20526;-71
2021/08/26 06:33:39;;;;;;;21.80;5.82;;;16.40;77.20;;;;;;5015641;28;20049;-72
2021/08/26 06:36:05;;;;;;;15.98;4.80;;;16.40;77.70;;;;;;5010280;28;20072;-71
2021/08/26 06:38:30;;;;;;;15.95;5.75;;;16.40;77.90;;;;;;5011836;28;20662;-70
2021/08/26 06:40:56;;;;;;;15.35;5.50;;;16.40;78.30;;;;;;5012333;28;20113;-71
2021/08/26 06:43:22;;;;;;;19.02;5.88;;;16.30;78.50;;;;;;5010927;28;20061;-70
2021/08/26 06:45:47;;;;;;;18.33;5.80;;;16.30;78.90;;;;;;5014866;28;20026;-71
2021/08/26 06:48:13;;;;;;;22.35;6.05;;;16.40;79.10;;;;;;5015951;28;20392;-70
2021/08/26 06:50:39;;;;;;;18.25;6.35;;;16.50;78.90;;;;;;5024770;28;20041;-73
2021/08/26 06:53:04;;;;;;;16.27;5.00;;;16.60;78.90;;;;;;5026607;28;20483;-72
2021/08/26 06:55:30;;;;;;;19.67;6.20;;;16.70;78.70;;;;;;5027401;28;20537;-70
2021/08/26 06:57:55;;;;;;;18.83;6.35;;;16.80;78.50;;;;;;5013660;28;20393;-71
2021/08/26 07:00:21;;;;;;;20.92;5.90;;;16.90;78.20;;;;;;5013832;28;20408;-70
2021/08/26 07:02:47;;;;;;;16.63;6.70;;;17.00;78.60;;;;;;5014876;28;20033;-70
2021/08/26 07:05:13;;;;;;;21.50;5.95;;;17.10;78.30;;;;;;5011757;28;20057;-70
2021/08/26 07:07:38;;;;;;;13.70;5.65;;;17.10;77.70;;;;;;5022713;28;20076;-70
2021/08/26 07:10:05;;;;;;;18.70;6.03;;;17.10;78.10;;;;;;5011274;28;20038;-70
2021/08/26 07:12:31;;;;;;;17.90;6.18;;;17.10;78.30;;;;;;5011962;28;20389;-71
2021/08/26 07:15:00;;;;;;;16.90;5.95;;;17.10;78.30;;;;;;5013951;28;20036;-70
2021/08/26 07:17:26;;;;;;;20.05;6.00;;;17.10;77.40;;;;;;5021714;28;20038;-70
2021/08/26 07:19:52;;;;;;;18.65;6.07;;;17.10;77.40;;;;;;5015315;28;20543;-72
2021/08/26 07:22:18;;;;;;;19.23;5.70;;;17.10;77.20;;;;;;5024222;28;20458;-69
2021/08/26 07:24:44;;;;;;;21.10;6.03;;;17.20;76.70;;;;;;5029631;28;20128;-69
2021/08/26 07:27:10;;;;;;;18.15;5.50;;;17.10;75.20;;;;;;5015977;28;20116;-71
2021/08/26 07:29:36;;;;;;;16.77;5.55;;;17.20;75.80;;;;;;5027042;28;20041;-71
2021/08/26 07:32:03;;;;;;;17.05;5.60;;;17.20;75.00;;;;;;5026470;28;20064;-71
2021/08/26 07:34:28;;;;;;;15.80;5.82;;;17.30;75.50;;;;;;5027715;28;20052;-71
2021/08/26 07:36:54;;;;;;;15.13;5.32;;;17.50;75.20;;;;;;5015872;28;20398;-73
2021/08/26 07:39:20;;;;;;;20.25;6.45;;;17.60;74.50;;;;;;5027577;28;20037;-71
2021/08/26 07:41:45;;;;;;;15.73;6.40;;;17.70;74.90;;;;;;5027979;28;20045;-71
2021/08/26 07:44:11;;;;;;;13.68;5.70;;;17.90;73.50;;;;;;5015336;28;20037;-69
2021/08/26 07:46:37;;;;;;;14.55;5.47;;;18.00;73.40;;;;;;5027621;28;20030;-69
2021/08/26 07:49:05;;;;;;;16.10;5.72;;;18.00;71.90;;;;;;5027613;28;20554;-74
2021/08/26 07:51:30;;;;;;;17.60;5.38;;;18.10;72.10;;;;;;5029383;28;20040;-69
2021/08/26 07:53:56;;;;;;;19.27;5.05;;;18.00;71.70;;;;;;5027112;28;20033;-71
2021/08/26 07:56:22;;;;;;;15.18;4.93;;;18.10;70.30;;;;;;5015388;28;20112;-69
2021/08/26 07:58:47;;;;;;;14.00;4.35;;;18.10;69.40;;;;;;5029082;28;20031;-69
2021/08/26 08:01:13;;;;;;;16.05;5.63;;;18.20;70.20;;;;;;5018281;28;20029;-69
2021/08/26 08:03:39;;;;;;;11.27;4.05;;;18.30;69.50;;;;;;5019440;28;20026;-69
2021/08/26 08:06:05;;;;;;;15.23;4.43;;;18.40;69.60;;;;;;5023885;28;20109;-70
2021/08/26 08:08:32;;;;;;;15.07;4.70;;;18.40;68.60;;;;;;5016490;28;20034;-70
2021/08/26 08:10:57;;;;;;;14.82;4.45;;;18.50;69.20;;;;;;5009442;28;20457;-70
2021/08/26 08:13:23;;;;;;;12.45;4.50;;;18.60;68.90;;;;;;5015124;28;20107;-70
2021/08/26 08:15:49;;;;;;;12.52;4.43;;;18.70;68.70;;;;;;5013480;28;20037;-70
2021/08/26 08:18:15;;;;;;;13.38;3.78;;;18.90;68.90;;;;;;5022274;28;20030;-70
2021/08/26 08:20:41;;;;;;;14.88;4.18;;;18.80;68.30;;;;;;5016006;28;20057;-75
2021/08/26 08:23:07;;;;;;;13.00;4.38;;;18.70;68.90;;;;;;5025546;28;20061;-74
2021/08/26 08:25:33;;;;;;;11.90;3.85;;;18.80;69.00;;;;;;5016044;28;20145;-70
2021/08/26 08:27:59;;;;;;;17.25;5.00;;;18.90;69.20;;;;;;5010465;28;20181;-71
2021/08/26 08:30:27;;;;;;;12.27;4.07;;;19.10;69.30;;;;;;5001591;28;20074;-70
2021/08/26 08:32:54;;;;;;;11.57;4.40;;;19.30;68.90;;;;;;5023779;28;20037;-70
2021/08/26 08:35:21;;;;;;;15.07;4.47;;;19.40;69.30;;;;;;5027419;28;20389;-70
2021/08/26 08:37:47;;;;;;;13.13;4.75;;;19.20;68.70;;;;;;5032642;28;20103;-69
2021/08/26 08:40:12;;;;;;;14.02;4.85;;;19.00;70.00;;;;;;5019109;28;20481;-70
2021/08/26 08:42:38;;;;;;;10.80;3.83;;;19.10;70.70;;;;;;5013568;28;20429;-70
2021/08/26 08:45:05;;;;;;;15.25;4.55;;;18.90;69.80;;;;;;5026711;28;20088;-73
2021/08/26 08:47:36;;;;;;;11.77;4.40;;;18.80;70.50;;;;;;5019866;28;20080;-70
2021/08/26 08:50:03;;;;;;;14.15;4.60;;;18.70;71.50;;;;;;5027452;28;20437;-70
2021/08/26 08:52:34;;;;;;;13.88;4.43;;;18.80;71.40;;;;;;5031334;28;20025;-71
2021/08/26 08:55:00;;;;;;;15.05;4.95;;;18.70;71.90;;;;;;5006212;28;20046;-70
2021/08/26 08:57:26;;;;;;;14.35;4.40;;;18.60;72.50;;;;;;5026026;28;20112;-74
2021/08/26 08:59:51;;;;;;;12.38;3.47;;;18.40;73.80;;;;;;5016133;28;20038;-70
2021/08/26 09:02:17;;;;;;;10.05;2.97;;;18.10;72.30;;;;;;5018473;28;20091;-70
2021/08/26 09:05:00;;;;;;;11.82;3.63;;;17.90;70.60;;;;;;5018444;28;20460;-70
2021/08/26 09:07:28;;;;;;;11.02;3.30;;;18.00;69.80;;;;;;5027053;28;20042;-70
2021/08/26 09:09:55;;;;;;;13.02;3.58;;;18.10;67.50;;;;;;5015162;28;20057;-70
2021/08/26 09:12:40;;;;;;;8.90;2.78;;;18.30;67.30;;;;;;5021438;28;20049;-70
2021/08/26 09:15:10;;;;;;;9.15;2.92;;;18.30;65.20;;;;;;5015332;28;20089;-70
2021/08/26 09:17:37;;;;;;;8.52;2.63;;;18.30;65.10;;;;;;5022650;28;20045;-72
2021/08/26 09:20:05;;;;;;;9.80;2.85;;;18.60;64.80;;;;;;5008746;28;20050;-69
2021/08/26 09:22:31;;;;;;;10.10;2.45;;;18.80;64.40;;;;;;5020975;28;20029;-70
2021/08/26 09:24:58;;;;;;;7.53;2.70;;;18.80;64.30;;;;;;5017852;28;20034;-70
2021/08/26 09:27:35;;;;;;;9.15;2.40;;;18.90;64.10;;;;;;4998197;28;20488;-70
2021/08/26 09:30:20;;;;;;;9.85;2.30;;;19.00;64.70;;;;;;5023094;28;20443;-73
2021/08/26 09:32:49;;;;;;;8.00;2.10;;;19.50;63.70;;;;;;5013413;28;20042;-70
2021/08/26 09:35:43;;;;;;;7.43;2.22;;;19.60;61.80;;;;;;5026101;28;20500;-70
2021/08/26 09:38:09;;;;;;;8.30;2.00;;;19.30;60.80;;;;;;5021402;28;20140;-70
2021/08/26 09:40:46;;;;;;;9.13;1.92;;;19.10;61.40;;;;;;5014428;28;20529;-71
2021/08/26 09:43:12;;;;;;;6.53;2.00;;;18.80;63.50;;;;;;5022389;28;20465;-70
2021/08/26 09:45:47;;;;;;;10.68;2.35;;;18.50;63.60;;;;;;5027654;28;20037;-70
2021/08/26 09:48:15;;;;;;;6.53;1.80;;;18.50;63.50;;;;;;5029884;28;20025;-70
2021/08/26 09:50:51;;;;;;;7.22;1.67;;;18.50;62.90;;;;;;5017820;28;20038;-70
2021/08/26 09:53:22;;;;;;;5.72;1.70;;;18.60;61.20;;;;;;5033381;28;20045;-70
2021/08/26 09:55:57;;;;;;;6.95;1.95;;;18.90;60.30;;;;;;5016512;28;20032;-70
2021/08/26 09:58:33;;;;;;;6.20;1.48;;;19.10;60.40;;;;;;4990861;28;20381;-72
2021/08/26 10:01:18;;;;;;;7.20;2.10;;;19.50;60.20;;;;;;5007346;28;20041;-71
2021/08/26 10:03:44;;;;;;;4.97;1.83;;;19.50;58.60;;;;;;5000258;28;20034;-71
2021/08/26 10:06:14;;;;;;;11.23;2.58;;;19.50;58.50;;;;;;4991282;28;20035;-74
2021/08/26 10:08:42;;;;;;;7.88;2.17;;;19.70;58.80;;;;;;5003279;28;20085;-70
2021/08/26 10:11:10;;;;;;;7.80;2.17;;;20.00;57.70;;;;;;5009819;28;20480;-70
2021/08/26 10:13:39;;;;;;;9.40;2.22;;;19.70;58.60;;;;;;5014327;28;20123;-71
2021/08/26 10:16:05;;;;;;;11.85;2.50;;;19.20;60.40;;;;;;5017009;28;20054;-70
2021/08/26 10:18:31;;;;;;;10.15;2.75;;;19.10;60.60;;;;;;4996254;28;20030;-70
2021/08/26 10:20:57;;;;;;;7.55;2.25;;;19.00;61.50;;;;;;5016173;28;20127;-70
2021/08/26 10:23:24;;;;;;;8.07;2.88;;;19.00;61.70;;;;;;5027396;28;20057;-71
2021/08/26 10:25:52;;;;;;;10.63;2.60;;;19.10;62.50;;;;;;5020284;28;20045;-71
2021/08/26 10:28:18;;;;;;;11.65;3.03;;;19.30;62.20;;;;;;5012321;28;20117;-75
2021/08/26 10:30:44;;;;;;;10.88;2.97;;;19.30;62.60;;;;;;5028797;28;20041;-70
2021/08/26 10:33:22;;;;;;;14.85;3.05;;;19.30;63.60;;;;;;5028512;28;20032;-70
2021/08/26 10:35:54;;;;;;;13.45;3.08;;;19.40;63.90;;;;;;5023825;28;20485;-70
2021/08/26 10:38:28;;;;;;;11.00;2.78;;;19.40;64.50;;;;;;5023263;28;20041;-71
2021/08/26 10:40:55;;;;;;;12.45;3.53;;;19.30;64.50;;;;;;5024584;28;20125;-70
2021/08/26 10:43:35;;;;;;;9.70;2.72;;;19.50;65.60;;;;;;5020762;28;20030;-71
2021/08/26 10:46:03;;;;;;;10.55;2.63;;;19.40;64.40;;;;;;5028718;28;20036;-70
2021/08/26 10:48:28;;;;;;;10.80;3.10;;;19.60;64.90;;;;;;5017806;28;20492;-70
2021/08/26 10:51:16;;;;;;;8.35;2.60;;;19.50;64.60;;;;;;5014467;28;20054;-70
2021/08/26 10:53:48;;;;;;;10.32;2.65;;;19.60;63.60;;;;;;5013153;28;20053;-70
2021/08/26 10:56:25;;;;;;;8.70;2.83;;;19.90;63.90;;;;;;4991840;28;20034;-70
2021/08/26 10:58:57;;;;;;;10.18;3.17;;;20.20;62.40;;;;;;5018511;28;20163;-70
2021/08/26 11:01:28;;;;;;;6.75;2.35;;;20.30;61.50;;;;;;5021271;28;20030;-74
2021/08/26 11:04:00;;;;;;;9.93;2.70;;;20.00;61.60;;;;;;5002385;28;20034;-69
2021/08/26 11:06:28;;;;;;;8.05;2.70;;;19.60;64.10;;;;;;5007796;28;20044;-72
2021/08/26 11:08:56;;;;;;;7.88;2.83;;;19.00;64.20;;;;;;5014393;28;20082;-69
2021/08/26 11:11:27;;;;;;;9.98;2.90;;;18.80;66.40;;;;;;5025722;28;20049;-70
2021/08/26 11:14:03;;;;;;;10.48;2.92;;;18.60;69.00;;;;;;4998573;28;20093;-71
2021/08/26 11:16:28;;;;;;;10.20;3.42;;;18.50;70.70;;;;;;5022847;28;20042;-70
2021/08/26 11:19:05;;;;;;;9.20;2.83;;;18.50;70.70;;;;;;5033207;28;20047;-70
2021/08/26 11:24:20;;;;;;;9.60;2.75;;;18.80;68.50;;;;;;5027842;28;20056;-74
2021/08/26 11:27:06;;;;;;;6.32;2.20;;;19.20;68.30;;;;;;5028685;28;20095;-70
2021/08/26 11:29:33;;;;;;;8.82;2.80;;;19.30;66.80;;;;;;5019581;28;20038;-70
2021/08/26 11:32:02;;;;;;;8.57;2.55;;;19.50;66.20;;;;;;5012690;28;20036;-69
2021/08/26 11:34:34;;;;;;;7.43;2.60;;;19.40;65.60;;;;;;5019859;28;20040;-69
2021/08/26 11:37:07;;;;;;;9.82;2.45;;;19.40;64.70;;;;;;5011060;28;20026;-71
2021/08/26 11:39:55;;;;;;;8.73;2.53;;;19.50;66.50;;;;;;5029367;28;20487;-70
2021/08/26 11:42:25;;;;;;;8.35;2.42;;;19.50;65.80;;;;;;5018155;28;20456;-71
2021/08/26 11:45:03;;;;;;;8.85;2.53;;;19.60;66.90;;;;;;5020124;28;20021;-71
2021/08/26 11:47:33;;;;;;;11.70;2.83;;;19.60;66.30;;;;;;5025212;28;20045;-71
2021/08/26 11:50:24;;;;;;;9.15;2.60;;;19.50;66.60;;;;;;5010862;28;20433;-70
2021/08/26 11:53:11;;;;;;;11.05;2.60;;;19.20;66.60;;;;;;5032240;28;20152;-71
2021/08/26 11:55:39;;;;;;;6.07;1.52;;;18.80;69.40;;;;;;5023717;28;20056;-70
2021/08/26 11:58:08;;;;;;;5.50;2.00;;;18.00;72.40;;;;;;5028930;28;20033;-70
2021/08/26 12:00:49;;;;;;;4.13;1.60;;;17.60;74.20;;;;;;5029126;28;20033;-71
2021/08/26 12:03:15;;;;;;;8.70;1.80;;;17.60;74.60;;;;;;5026285;28;20503;-70
2021/08/26 12:05:41;;;;;;;7.93;1.90;;;17.80;74.70;;;;;;5020107;28;20029;-72
2021/08/26 12:08:08;;;;;;;7.25;2.22;;;18.00;73.30;;;;;;5030780;28;20040;-70
2021/08/26 12:10:45;;;;;;;7.07;2.22;;;18.10;72.80;;;;;;5032908;28;20585;-70
2021/08/26 12:13:22;;;;;;;8.85;2.38;;;18.20;73.30;;;;;;5031420;28;20026;-70
2021/08/26 12:15:55;;;;;;;6.90;2.05;;;18.50;73.10;;;;;;5032163;28;20026;-69
2021/08/26 12:18:29;;;;;;;8.63;2.53;;;18.70;71.40;;;;;;5029642;28;20580;-69
2021/08/26 12:20:57;;;;;;;6.53;2.28;;;18.80;71.10;;;;;;5031106;28;20064;-70
2021/08/26 12:23:26;;;;;;;7.50;2.40;;;19.00;69.50;;;;;;5025403;28;20056;-70
2021/08/26 12:26:16;;;;;;;5.95;2.20;;;19.00;68.90;;;;;;5025204;28;20029;-74
2021/08/26 12:28:48;;;;;;;7.95;2.30;;;19.40;68.40;;;;;;5029298;28;20033;-70
2021/08/26 12:31:17;;;;;;;8.10;2.47;;;19.40;66.80;;;;;;5030661;28;20539;-75
2021/08/26 12:34:10;;;;;;;7.50;2.40;;;19.40;67.10;;;;;;5031682;28;20026;-71
2021/08/26 12:36:38;;;;;;;10.40;2.72;;;19.50;66.80;;;;;;5020409;28;20042;-71
2021/08/26 12:39:16;;;;;;;6.63;2.45;;;19.40;67.30;;;;;;5017971;28;20029;-76
2021/08/26 12:41:42;;;;;;;8.55;2.85;;;19.50;66.00;;;;;;5032507;28;20428;-71
2021/08/26 12:44:24;;;;;;;10.45;3.35;;;19.60;66.00;;;;;;5031120;28;20079;-71
2021/08/26 12:46:53;;;;;;;10.20;3.38;;;19.60;65.80;;;;;;5030682;28;20057;-70
2021/08/26 12:49:19;;;;;;;9.85;3.30;;;19.70;67.10;;;;;;5028582;28;20426;-71
2021/08/26 12:51:56;;;;;;;9.52;3.15;;;19.80;67.40;;;;;;5035129;28;20021;-70